Time;durP1;ratioP1;P1;durP2;ratioP2;P2;SDS_P1;SDS_P2;PMS_P1;PMS_P2;Temp;Humidity;BMP_temperature;BMP_pressure;BME280_temperature;BME280_humidity;BME280_pressure;Samples;Min_cycle;Max_cycle;Signal;HPM_P1;HPM_P2
2021/01/27 00:00:58;;;;;;;8.13;3.47;;;3.40;99.90;;;;;;5097407;27;20200;-77
2021/01/27 00:03:26;;;;;;;8.40;3.40;;;3.30;99.90;;;;;;5096613;27;20210;-77
2021/01/27 00:05:53;;;;;;;4.90;3.30;;;3.30;99.90;;;;;;5098731;27;20287;-77
2021/01/27 00:08:21;;;;;;;10.27;3.57;;;3.30;99.90;;;;;;5094769;27;20590;-77
2021/01/27 00:10:48;;;;;;;11.07;3.63;;;3.30;99.90;;;;;;5096337;28;20207;-77
2021/01/27 00:13:17;;;;;;;5.83;3.73;;;3.20;99.90;;;;;;5092828;28;20203;-78
2021/01/27 00:15:44;;;;;;;9.00;3.50;;;3.20;99.90;;;;;;5092244;28;20196;-77
2021/01/27 00:18:12;;;;;;;5.83;3.67;;;3.20;99.90;;;;;;5097632;28;20188;-77
2021/01/27 00:20:40;;;;;;;7.20;3.60;;;3.20;99.90;;;;;;5093456;27;20199;-78
2021/01/27 00:23:07;;;;;;;5.90;3.37;;;3.20;99.90;;;;;;5094280;27;20256;-77
2021/01/27 00:25:35;;;;;;;7.53;3.80;;;3.20;99.90;;;;;;5091713;28;20200;-77
2021/01/27 00:28:01;;;;;;;5.43;3.30;;;3.10;99.90;;;;;;5096305;28;20293;-77
2021/01/27 00:30:30;;;;;;;8.80;3.80;;;3.20;99.90;;;;;;5095680;28;20207;-79
2021/01/27 00:32:57;;;;;;;6.13;3.60;;;3.10;99.90;;;;;;5097721;28;20191;-79
2021/01/27 00:35:27;;;;;;;7.53;3.50;;;3.00;99.90;;;;;;5094127;28;20200;-79
2021/01/27 00:37:54;;;;;;;7.10;3.67;;;3.10;99.90;;;;;;5093739;28;20245;-78
2021/01/27 00:40:21;;;;;;;8.57;3.80;;;3.10;99.90;;;;;;5092473;28;20210;-78
2021/01/27 00:42:47;;;;;;;9.00;3.97;;;3.10;99.90;;;;;;5091746;28;20203;-78
2021/01/27 00:45:14;;;;;;;8.00;4.17;;;3.00;99.90;;;;;;5101524;28;20210;-78
2021/01/27 00:47:40;;;;;;;8.00;4.00;;;3.00;99.90;;;;;;5095637;28;20212;-78
2021/01/27 00:50:08;;;;;;;6.67;3.80;;;3.00;99.90;;;;;;5098013;28;20219;-78
2021/01/27 00:52:34;;;;;;;6.53;3.80;;;2.90;99.90;;;;;;5093977;28;20672;-78
2021/01/27 00:55:02;;;;;;;6.37;3.53;;;2.90;99.90;;;;;;5094531;28;20200;-78
2021/01/27 00:57:28;;;;;;;8.20;3.50;;;2.90;99.90;;;;;;5092255;28;20292;-78
2021/01/27 00:59:54;;;;;;;5.30;3.50;;;2.90;99.90;;;;;;5091527;28;20204;-78
2021/01/27 01:02:21;;;;;;;7.17;3.97;;;3.00;99.90;;;;;;5102018;27;20196;-78
2021/01/27 01:04:47;;;;;;;7.37;4.30;;;3.00;99.90;;;;;;5099414;27;20292;-78
2021/01/27 01:07:13;;;;;;;9.87;4.27;;;3.00;99.90;;;;;;5101853;27;20285;-78
2021/01/27 01:09:39;;;;;;;8.33;4.40;;;3.00;99.90;;;;;;5097652;27;20223;-78
2021/01/27 01:12:07;;;;;;;6.80;4.07;;;2.90;99.90;;;;;;5098068;27;20203;-78
2021/01/27 01:14:33;;;;;;;7.47;4.47;;;2.90;99.90;;;;;;5095796;27;20204;-78
2021/01/27 01:17:00;;;;;;;10.43;4.73;;;2.80;99.90;;;;;;5098469;27;20264;-78
2021/01/27 01:19:26;;;;;;;7.30;4.23;;;2.70;99.90;;;;;;5099768;27;20210;-76
2021/01/27 01:21:53;;;;;;;7.73;4.90;;;2.70;99.90;;;;;;5096924;27;20298;-78
2021/01/27 01:24:19;;;;;;;7.47;4.47;;;2.60;99.90;;;;;;5096158;27;20204;-78
2021/01/27 01:26:45;;;;;;;7.27;4.73;;;2.60;99.90;;;;;;5094959;28;20307;-77
2021/01/27 01:29:12;;;;;;;9.20;3.97;;;2.50;99.90;;;;;;5100155;27;20231;-77
2021/01/27 01:31:39;;;;;;;5.93;4.00;;;2.50;99.90;;;;;;5102859;27;20370;-78
2021/01/27 01:34:06;;;;;;;5.90;4.00;;;2.40;99.90;;;;;;5098306;27;20290;-77
2021/01/27 01:36:32;;;;;;;6.00;3.90;;;2.50;99.90;;;;;;5099564;27;20202;-78
2021/01/27 01:38:58;;;;;;;6.53;4.10;;;2.50;99.90;;;;;;5096348;27;20239;-78
2021/01/27 01:41:25;;;;;;;8.57;4.40;;;2.50;99.90;;;;;;5096442;27;20199;-78
2021/01/27 01:43:51;;;;;;;4.60;3.53;;;2.40;99.90;;;;;;5100358;27;20767;-78
2021/01/27 01:46:21;;;;;;;7.70;3.77;;;2.40;99.90;;;;;;5099679;27;20222;-78
2021/01/27 01:48:51;;;;;;;6.47;3.93;;;2.40;99.90;;;;;;5127320;27;20219;-77
2021/01/27 01:51:30;;;;;;;8.57;3.60;;;2.40;99.90;;;;;;5124980;27;20198;-78
2021/01/27 01:54:20;;;;;;;4.43;3.10;;;2.40;99.90;;;;;;5125940;27;20250;-78
2021/01/27 01:57:01;;;;;;;3.27;2.53;;;2.40;99.90;;;;;;5122243;27;20199;-78
2021/01/27 01:59:29;;;;;;;7.17;2.83;;;2.40;99.90;;;;;;5122310;27;20198;-78
2021/01/27 02:02:00;;;;;;;4.80;2.93;;;2.40;99.90;;;;;;5124958;27;20193;-78
2021/01/27 02:04:33;;;;;;;5.17;2.70;;;2.50;99.90;;;;;;5122124;27;20200;-78
2021/01/27 02:06:59;;;;;;;4.50;2.73;;;2.50;99.90;;;;;;5124393;27;20242;-78
2021/01/27 02:09:25;;;;;;;3.53;2.40;;;2.60;99.90;;;;;;5121533;27;20559;-78
2021/01/27 02:12:06;;;;;;;3.03;2.30;;;2.70;99.90;;;;;;5125223;27;20202;-78
2021/01/27 02:14:52;;;;;;;3.43;2.50;;;2.80;99.90;;;;;;5122957;27;20272;-78
2021/01/27 02:17:27;;;;;;;4.03;2.30;;;2.80;99.90;;;;;;5124939;27;20727;-78
2021/01/27 02:20:32;;;;;;;3.50;2.20;;;2.90;99.90;;;;;;5123573;27;20231;-78
2021/01/27 02:23:46;;;;;;;3.30;2.30;;;2.80;99.90;;;;;;5070036;28;20600;-78
2021/01/27 02:26:37;;;;;;;3.57;2.40;;;2.80;99.90;;;;;;5121436;27;20199;-78
2021/01/27 02:29:18;;;;;;;3.03;1.37;;;2.80;99.90;;;;;;5113966;28;20233;-78
2021/01/27 02:31:54;;;;;;;2.20;1.63;;;2.80;99.90;;;;;;5113785;28;20209;-78
2021/01/27 02:34:57;;;;;;;2.77;1.97;;;2.90;99.90;;;;;;5115030;28;20289;-77
2021/01/27 02:37:28;;;;;;;2.57;2.03;;;2.90;99.90;;;;;;5114734;28;20201;-77
2021/01/27 02:39:59;;;;;;;3.07;1.97;;;2.90;99.90;;;;;;5115139;28;20495;-77
2021/01/27 02:42:32;;;;;;;2.80;1.93;;;2.90;99.90;;;;;;5114606;28;20229;-78
2021/01/27 02:45:04;;;;;;;2.20;1.70;;;2.90;99.90;;;;;;5114778;28;20202;-78
2021/01/27 02:47:39;;;;;;;3.00;1.83;;;2.90;99.90;;;;;;5114991;28;20199;-78
2021/01/27 02:50:11;;;;;;;2.80;2.00;;;2.80;99.90;;;;;;5114736;28;20226;-77
2021/01/27 02:52:45;;;;;;;2.33;1.70;;;2.90;99.90;;;;;;5114723;28;20354;-78
2021/01/27 02:55:16;;;;;;;2.87;1.70;;;2.90;99.90;;;;;;5114756;28;20289;-76
2021/01/27 02:57:47;;;;;;;4.33;1.87;;;2.90;99.90;;;;;;5114378;28;20205;-78
2021/01/27 03:00:21;;;;;;;2.90;1.67;;;2.90;99.90;;;;;;5114637;28;20192;-77
2021/01/27 03:02:52;;;;;;;3.80;1.90;;;2.90;99.90;;;;;;5114414;28;20675;-77
2021/01/27 03:05:27;;;;;;;4.87;2.00;;;2.90;99.90;;;;;;5114226;28;20199;-78
2021/01/27 03:07:58;;;;;;;4.50;2.20;;;2.80;99.90;;;;;;5114580;28;20229;-78
2021/01/27 03:10:29;;;;;;;2.73;1.80;;;2.80;99.90;;;;;;5114435;28;20720;-77
2021/01/27 03:12:56;;;;;;;4.07;1.87;;;2.80;99.90;;;;;;5113950;28;20203;-77
2021/01/27 03:15:23;;;;;;;2.97;1.77;;;2.80;99.90;;;;;;5114382;28;20305;-77
2021/01/27 03:17:54;;;;;;;3.93;1.97;;;2.90;99.90;;;;;;5114065;28;20191;-77
2021/01/27 03:20:26;;;;;;;2.10;1.57;;;2.90;99.90;;;;;;5114207;28;20199;-77
2021/01/27 03:22:57;;;;;;;7.67;2.37;;;2.90;99.90;;;;;;5114103;28;20194;-77
2021/01/27 03:25:25;;;;;;;2.20;1.80;;;2.90;99.90;;;;;;5113157;28;20562;-77
2021/01/27 03:27:59;;;;;;;4.43;1.90;;;2.90;99.90;;;;;;5114062;28;20199;-77
2021/01/27 03:30:25;;;;;;;3.07;1.80;;;2.90;99.90;;;;;;5109720;28;20618;-77
2021/01/27 03:32:59;;;;;;;2.50;1.93;;;2.90;99.90;;;;;;5113303;28;20195;-77
2021/01/27 03:35:32;;;;;;;2.43;1.90;;;2.90;99.90;;;;;;5113819;28;20202;-77
2021/01/27 03:38:02;;;;;;;3.33;1.70;;;2.90;99.90;;;;;;5106391;28;20198;-77
2021/01/27 03:40:29;;;;;;;4.00;1.83;;;2.90;99.90;;;;;;5108408;28;20731;-77
2021/01/27 03:43:02;;;;;;;3.43;2.00;;;2.90;99.90;;;;;;5113489;28;20302;-78
2021/01/27 03:45:32;;;;;;;2.47;1.77;;;2.90;99.90;;;;;;5113539;28;20208;-77
2021/01/27 03:48:06;;;;;;;4.53;1.93;;;2.90;99.90;;;;;;5098980;28;20204;-79
2021/01/27 03:50:36;;;;;;;2.77;1.83;;;3.00;99.90;;;;;;5113513;28;20214;-77
2021/01/27 03:53:06;;;;;;;6.17;2.40;;;3.00;99.90;;;;;;5113263;28;20264;-77
2021/01/27 03:55:37;;;;;;;3.60;2.10;;;3.00;99.90;;;;;;5113495;28;20249;-77
2021/01/27 03:58:10;;;;;;;4.17;1.80;;;3.00;99.90;;;;;;5113323;28;20254;-77
2021/01/27 04:00:38;;;;;;;2.73;2.17;;;3.00;99.90;;;;;;5113461;28;20299;-77
2021/01/27 04:03:14;;;;;;;3.50;2.43;;;3.00;99.90;;;;;;5109053;28;20278;-77
2021/01/27 04:05:42;;;;;;;2.70;1.93;;;3.00;99.90;;;;;;5104340;28;20202;-77
2021/01/27 04:08:08;;;;;;;5.07;2.37;;;2.90;99.90;;;;;;5112761;28;20286;-77
2021/01/27 04:10:35;;;;;;;3.73;2.10;;;2.90;99.90;;;;;;5112783;28;20313;-77
2021/01/27 04:13:02;;;;;;;3.17;2.43;;;3.00;99.90;;;;;;5112401;28;20202;-77
2021/01/27 04:15:28;;;;;;;4.20;2.43;;;3.00;99.90;;;;;;5112571;28;20546;-77
2021/01/27 04:17:55;;;;;;;3.30;2.57;;;3.00;99.90;;;;;;5112612;28;20199;-77
2021/01/27 04:20:22;;;;;;;3.27;2.50;;;3.00;99.90;;;;;;5098326;28;20660;-77
2021/01/27 04:22:49;;;;;;;4.33;2.97;;;3.00;99.90;;;;;;5112878;28;20281;-77
2021/01/27 04:25:17;;;;;;;3.90;2.60;;;3.00;99.90;;;;;;5112338;28;20290;-77
2021/01/27 04:27:44;;;;;;;6.30;2.93;;;3.00;99.90;;;;;;5112739;28;20195;-77
2021/01/27 04:30:13;;;;;;;6.40;3.00;;;3.00;99.90;;;;;;5112361;28;20256;-78
2021/01/27 04:32:39;;;;;;;3.20;2.77;;;3.00;99.90;;;;;;5112701;28;20202;-77
2021/01/27 04:35:07;;;;;;;3.50;2.63;;;3.00;99.90;;;;;;5112219;28;20198;-77
2021/01/27 04:37:34;;;;;;;4.77;3.00;;;3.00;99.90;;;;;;5108772;28;20203;-77
2021/01/27 04:40:01;;;;;;;5.33;2.77;;;3.00;99.90;;;;;;5109569;28;20198;-78
2021/01/27 04:42:29;;;;;;;4.67;3.37;;;3.00;99.90;;;;;;5116862;28;20201;-77
2021/01/27 04:44:57;;;;;;;3.97;2.93;;;3.00;99.90;;;;;;5116994;28;20293;-77
2021/01/27 04:47:28;;;;;;;6.00;3.43;;;3.00;99.90;;;;;;5116828;28;20212;-78
2021/01/27 04:49:59;;;;;;;4.80;3.17;;;3.00;99.90;;;;;;5117352;28;20409;-77
2021/01/27 04:52:43;;;;;;;5.10;3.23;;;3.00;99.90;;;;;;5117407;28;20200;-77
2021/01/27 04:55:26;;;;;;;6.80;3.40;;;3.00;99.90;;;;;;5117757;28;20220;-77
2021/01/27 04:58:05;;;;;;;4.27;3.17;;;3.00;99.90;;;;;;5116333;28;20209;-78
2021/01/27 05:01:10;;;;;;;5.37;3.10;;;3.00;99.90;;;;;;5113497;28;20219;-77
2021/01/27 05:03:54;;;;;;;5.03;3.17;;;3.00;99.90;;;;;;5110660;28;20662;-77
2021/01/27 05:06:23;;;;;;;5.80;3.10;;;3.10;99.90;;;;;;5116014;28;20231;-77
2021/01/27 05:09:00;;;;;;;5.63;3.37;;;3.10;99.90;;;;;;5116310;28;20228;-77
2021/01/27 05:11:29;;;;;;;5.70;2.90;;;3.10;99.90;;;;;;5115976;28;20235;-77
2021/01/27 05:13:59;;;;;;;5.70;2.97;;;3.10;99.90;;;;;;5116013;28;20291;-77
2021/01/27 05:16:28;;;;;;;4.63;3.07;;;3.10;99.90;;;;;;5115771;28;20195;-77
2021/01/27 05:18:57;;;;;;;4.83;3.30;;;3.10;99.90;;;;;;5115711;28;20635;-77
2021/01/27 05:21:27;;;;;;;7.65;4.78;;;3.00;99.90;;;;;;5115007;28;20530;-77
2021/01/27 05:23:55;;;;;;;5.30;3.83;;;3.00;99.90;;;;;;5116571;28;20572;-77
2021/01/27 05:26:25;;;;;;;5.00;3.50;;;3.10;99.90;;;;;;5115420;28;20255;-77
2021/01/27 05:29:00;;;;;;;5.93;3.73;;;3.10;99.90;;;;;;5115689;28;20309;-77
2021/01/27 05:31:59;;;;;;;4.30;3.10;;;3.10;99.90;;;;;;5115462;28;20239;-76
2021/01/27 05:34:32;;;;;;;6.73;3.67;;;3.00;99.90;;;;;;5108081;27;20757;-76
2021/01/27 05:36:59;;;;;;;6.60;3.70;;;3.00;99.90;;;;;;5113424;28;20702;-77
2021/01/27 05:39:28;;;;;;;4.17;3.63;;;3.10;99.90;;;;;;5103090;28;20206;-77
2021/01/27 05:42:20;;;;;;;6.80;3.80;;;3.00;99.90;;;;;;5115667;28;20660;-77
2021/01/27 05:44:47;;;;;;;5.37;3.70;;;3.00;99.90;;;;;;5115554;28;20237;-76
2021/01/27 05:47:33;;;;;;;4.83;3.27;;;3.00;99.90;;;;;;5115169;28;20281;-77
2021/01/27 05:50:19;;;;;;;5.20;3.40;;;3.00;99.90;;;;;;5114835;28;20218;-77
2021/01/27 05:52:46;;;;;;;7.40;3.80;;;3.00;99.90;;;;;;5115006;28;20663;-77
2021/01/27 05:55:13;;;;;;;6.17;3.50;;;3.00;99.90;;;;;;5115187;28;20223;-76
2021/01/27 05:57:42;;;;;;;5.57;3.90;;;3.00;99.90;;;;;;5115220;28;20204;-77
2021/01/27 06:00:21;;;;;;;5.30;3.67;;;3.10;99.90;;;;;;5115274;28;20702;-77
2021/01/27 06:02:48;;;;;;;6.33;3.83;;;3.10;99.90;;;;;;5115117;28;20199;-77
2021/01/27 06:05:16;;;;;;;4.87;3.43;;;3.10;99.90;;;;;;5112889;28;20669;-77
2021/01/27 06:07:43;;;;;;;5.50;3.60;;;3.10;99.90;;;;;;5114899;28;20286;-77
2021/01/27 06:10:18;;;;;;;4.70;3.83;;;3.10;99.90;;;;;;5115050;28;20226;-77
2021/01/27 06:12:45;;;;;;;5.77;3.60;;;3.20;99.90;;;;;;5114801;28;20729;-77
2021/01/27 06:15:29;;;;;;;4.57;3.70;;;3.10;99.90;;;;;;5115441;28;20943;-76
2021/01/27 06:17:55;;;;;;;5.53;3.53;;;3.20;99.90;;;;;;5120440;27;20204;-77
2021/01/27 06:20:30;;;;;;;4.70;3.67;;;3.10;99.90;;;;;;5110704;28;20210;-77
2021/01/27 06:23:16;;;;;;;4.97;3.50;;;3.10;99.90;;;;;;5111542;28;20191;-77
2021/01/27 06:25:53;;;;;;;7.60;3.80;;;3.00;99.90;;;;;;5113617;28;20202;-77
2021/01/27 06:28:40;;;;;;;5.80;3.83;;;3.10;99.90;;;;;;5113929;28;20203;-77
2021/01/27 06:31:18;;;;;;;6.40;4.17;;;3.10;99.90;;;;;;5114148;28;20678;-77
2021/01/27 06:34:16;;;;;;;5.47;3.50;;;3.20;99.90;;;;;;5108614;28;20227;-77
2021/01/27 06:37:07;;;;;;;6.97;4.40;;;3.20;99.90;;;;;;5107623;28;20195;-78
2021/01/27 06:39:50;;;;;;;5.07;3.40;;;3.10;99.90;;;;;;5112224;27;20253;-77
2021/01/27 06:42:32;;;;;;;5.17;3.80;;;3.10;99.90;;;;;;5111367;27;20293;-78
2021/01/27 06:45:11;;;;;;;6.90;4.13;;;3.10;99.90;;;;;;5103042;27;20665;-77
2021/01/27 06:48:18;;;;;;;6.87;4.33;;;3.20;99.90;;;;;;5111423;27;20195;-77
2021/01/27 06:51:07;;;;;;;6.57;4.40;;;3.20;99.90;;;;;;5097136;27;20250;-77
2021/01/27 06:54:25;;;;;;;6.00;4.33;;;3.30;99.90;;;;;;5113575;27;20718;-77
2021/01/27 06:57:14;;;;;;;7.30;4.60;;;3.20;99.90;;;;;;5078314;28;20255;-77
2021/01/27 07:00:21;;;;;;;6.10;4.30;;;3.20;99.90;;;;;;5104129;28;20199;-78
2021/01/27 07:03:36;;;;;;;6.50;4.30;;;3.20;99.90;;;;;;5117181;27;20195;-77
2021/01/27 07:06:54;;;;;;;7.30;4.50;;;3.20;99.90;;;;;;5115232;27;20211;-77
2021/01/27 07:09:53;;;;;;;7.50;4.40;;;3.20;99.90;;;;;;5105349;28;20280;-78
2021/01/27 07:12:24;;;;;;;6.37;4.27;;;3.20;99.90;;;;;;5108711;27;21048;-77
2021/01/27 07:15:19;;;;;;;6.17;4.50;;;3.20;99.90;;;;;;5112801;28;20200;-77
2021/01/27 07:18:11;;;;;;;5.80;4.20;;;3.20;99.90;;;;;;5110957;28;20294;-78
2021/01/27 07:20:42;;;;;;;6.23;3.53;;;3.20;99.90;;;;;;5108169;28;20233;-78
2021/01/27 07:23:14;;;;;;;7.80;4.43;;;3.20;99.90;;;;;;5112885;28;20295;-77
2021/01/27 07:25:56;;;;;;;7.67;4.23;;;3.20;99.90;;;;;;5109297;28;20671;-77
2021/01/27 07:28:30;;;;;;;6.00;4.50;;;3.20;99.90;;;;;;5112953;28;20274;-77
2021/01/27 07:31:03;;;;;;;6.50;4.97;;;3.30;99.90;;;;;;5111565;28;20220;-77
2021/01/27 07:33:40;;;;;;;7.13;4.53;;;3.30;99.90;;;;;;5101639;27;20199;-77
2021/01/27 07:36:33;;;;;;;5.83;4.63;;;3.30;99.90;;;;;;5120174;27;20204;-77
2021/01/27 07:39:05;;;;;;;6.33;4.73;;;3.30;99.90;;;;;;5121055;27;20194;-77
2021/01/27 07:41:42;;;;;;;7.97;5.20;;;3.30;99.90;;;;;;5123977;27;20502;-77
2021/01/27 07:44:15;;;;;;;6.73;5.00;;;3.30;99.90;;;;;;5112589;28;20213;-77
2021/01/27 07:46:48;;;;;;;6.93;4.67;;;3.40;99.90;;;;;;5124858;27;20191;-78
2021/01/27 07:49:19;;;;;;;6.67;5.27;;;3.40;99.90;;;;;;5120924;27;20219;-77
2021/01/27 07:51:51;;;;;;;7.70;5.20;;;3.50;99.90;;;;;;5129870;27;20569;-77
2021/01/27 07:54:23;;;;;;;8.47;5.13;;;3.50;99.90;;;;;;5120619;27;20426;-77
2021/01/27 07:56:55;;;;;;;9.27;4.83;;;3.50;99.90;;;;;;5121146;27;20187;-77
2021/01/27 07:59:28;;;;;;;7.63;5.17;;;3.50;99.90;;;;;;5126243;27;20211;-77
2021/01/27 08:01:58;;;;;;;7.20;5.43;;;3.40;99.90;;;;;;5101645;27;20190;-77
2021/01/27 08:04:33;;;;;;;7.13;5.17;;;3.50;99.90;;;;;;5110116;27;20293;-77
2021/01/27 08:07:01;;;;;;;7.27;5.57;;;3.50;99.90;;;;;;5128224;27;20208;-77
2021/01/27 08:09:32;;;;;;;8.70;5.50;;;3.50;99.90;;;;;;5130604;27;20222;-78
2021/01/27 08:12:18;;;;;;;10.87;5.80;;;3.50;99.90;;;;;;5128197;27;20217;-77
2021/01/27 08:15:07;;;;;;;8.67;6.30;;;3.50;99.90;;;;;;5120093;27;20195;-78
2021/01/27 08:17:58;;;;;;;7.60;5.10;;;3.60;99.90;;;;;;5115546;27;20770;-78
2021/01/27 08:20:27;;;;;;;7.80;5.80;;;3.70;99.90;;;;;;5112506;28;20192;-77
2021/01/27 08:22:56;;;;;;;9.50;6.23;;;3.70;99.90;;;;;;5121475;27;20515;-77
2021/01/27 08:25:48;;;;;;;10.87;6.27;;;3.70;99.90;;;;;;5112132;28;20682;-77
2021/01/27 08:28:26;;;;;;;6.73;5.33;;;3.70;99.90;;;;;;5126021;27;20198;-77
2021/01/27 08:31:19;;;;;;;8.73;6.10;;;3.80;99.90;;;;;;5124964;28;20216;-78
2021/01/27 08:33:57;;;;;;;10.27;6.40;;;3.80;99.90;;;;;;5128080;28;20396;-78
2021/01/27 08:37:01;;;;;;;8.83;6.47;;;3.80;99.90;;;;;;5132382;27;20281;-77
2021/01/27 08:39:27;;;;;;;12.67;6.13;;;3.90;99.90;;;;;;5126451;28;20280;-77
2021/01/27 08:41:58;;;;;;;11.10;6.10;;;3.90;99.90;;;;;;5127351;28;20205;-77
2021/01/27 08:44:30;;;;;;;9.67;6.60;;;3.90;99.90;;;;;;5128269;27;20190;-77
2021/01/27 08:47:00;;;;;;;9.53;6.63;;;3.90;99.90;;;;;;5119527;27;20242;-77
2021/01/27 08:49:46;;;;;;;11.03;6.60;;;4.00;99.90;;;;;;5129362;27;20298;-77
2021/01/27 08:52:43;;;;;;;10.97;6.63;;;4.10;99.90;;;;;;5112490;28;20195;-79
2021/01/27 08:55:35;;;;;;;11.70;6.70;;;4.20;99.90;;;;;;5074150;27;20209;-77
2021/01/27 08:58:23;;;;;;;11.07;7.20;;;4.20;99.90;;;;;;5108527;28;20192;-77
2021/01/27 09:00:53;;;;;;;10.30;7.07;;;4.10;99.90;;;;;;5130567;27;20206;-78
2021/01/27 09:03:56;;;;;;;10.43;6.53;;;4.10;99.90;;;;;;5115661;27;20200;-77
2021/01/27 09:06:28;;;;;;;10.57;6.50;;;4.20;99.90;;;;;;5103954;28;20295;-77
2021/01/27 09:09:06;;;;;;;9.60;7.17;;;4.30;99.90;;;;;;5125607;27;20211;-78
2021/01/27 09:11:33;;;;;;;8.80;5.60;;;4.30;99.90;;;;;;5126689;27;20255;-78
2021/01/27 09:14:05;;;;;;;9.83;6.67;;;4.30;99.90;;;;;;5127994;27;20292;-77
2021/01/27 09:16:32;;;;;;;9.87;7.47;;;4.20;99.90;;;;;;5122483;28;20269;-76
2021/01/27 09:19:02;;;;;;;13.57;6.87;;;4.30;99.90;;;;;;5118603;27;20200;-76
2021/01/27 09:21:30;;;;;;;10.90;7.53;;;4.40;99.90;;;;;;5110825;28;20209;-76
2021/01/27 09:24:00;;;;;;;12.93;7.80;;;4.50;99.90;;;;;;5128158;27;20665;-76
2021/01/27 09:26:39;;;;;;;12.93;8.03;;;4.60;99.90;;;;;;5131590;27;20207;-78
2021/01/27 09:29:09;;;;;;;12.00;7.30;;;4.70;99.90;;;;;;5132216;27;20255;-79
2021/01/27 09:31:36;;;;;;;12.17;7.60;;;4.70;99.90;;;;;;5129075;27;20545;-78
2021/01/27 09:34:14;;;;;;;17.93;8.20;;;4.60;99.90;;;;;;5115358;27;20195;-78
2021/01/27 09:36:42;;;;;;;12.03;8.03;;;4.70;99.90;;;;;;5116182;27;20291;-79
2021/01/27 09:39:09;;;;;;;12.13;8.13;;;4.70;99.90;;;;;;5114776;28;20199;-78
2021/01/27 09:41:36;;;;;;;12.47;8.43;;;4.80;99.90;;;;;;5128308;27;20290;-77
2021/01/27 09:44:03;;;;;;;13.77;8.57;;;4.80;99.90;;;;;;5129932;27;20260;-78
2021/01/27 09:46:33;;;;;;;16.23;9.00;;;4.90;99.90;;;;;;5124885;27;20199;-78
2021/01/27 09:49:04;;;;;;;16.00;8.70;;;5.00;99.90;;;;;;5122100;27;20198;-77
2021/01/27 09:51:32;;;;;;;12.97;8.37;;;5.00;99.90;;;;;;5112383;27;20238;-76
2021/01/27 09:54:00;;;;;;;13.83;8.93;;;5.10;99.90;;;;;;5122924;27;20311;-78
2021/01/27 09:56:29;;;;;;;13.13;8.80;;;5.00;99.90;;;;;;5127652;27;20226;-78
2021/01/27 09:58:58;;;;;;;15.03;8.67;;;5.00;99.90;;;;;;5120579;27;20245;-77
2021/01/27 10:01:27;;;;;;;15.77;9.47;;;5.20;99.90;;;;;;5124994;27;20266;-78
2021/01/27 10:04:05;;;;;;;17.03;9.13;;;5.20;99.90;;;;;;5120983;27;20198;-78
2021/01/27 10:06:38;;;;;;;13.33;8.63;;;5.20;99.90;;;;;;5131711;27;20339;-78
2021/01/27 10:09:13;;;;;;;16.10;9.13;;;5.20;99.90;;;;;;5120056;27;20701;-77
2021/01/27 10:11:41;;;;;;;18.20;9.53;;;5.20;99.90;;;;;;5119752;27;20203;-77
2021/01/27 10:14:10;;;;;;;13.30;8.80;;;5.20;99.90;;;;;;5116863;27;20203;-77
2021/01/27 10:16:49;;;;;;;13.40;8.87;;;5.20;99.90;;;;;;5125747;27;20727;-77
2021/01/27 10:19:21;;;;;;;16.13;9.33;;;5.20;99.90;;;;;;5126025;27;20293;-77
2021/01/27 10:21:50;;;;;;;19.03;9.90;;;5.20;99.90;;;;;;5122023;27;20199;-77
2021/01/27 10:24:46;;;;;;;17.77;9.93;;;5.20;99.90;;;;;;5125392;27;20210;-78
2021/01/27 10:27:19;;;;;;;18.23;9.80;;;5.20;99.90;;;;;;5123122;27;20498;-78
2021/01/27 10:29:46;;;;;;;16.50;9.43;;;5.20;99.90;;;;;;5127969;27;20318;-78
2021/01/27 10:32:32;;;;;;;15.17;9.70;;;5.20;99.90;;;;;;5129816;27;20207;-77
2021/01/27 10:35:01;;;;;;;18.70;9.90;;;5.10;99.90;;;;;;5128652;27;20243;-77
2021/01/27 10:37:35;;;;;;;17.13;10.00;;;5.20;99.90;;;;;;5127757;27;20198;-77
2021/01/27 10:40:10;;;;;;;15.67;9.90;;;5.20;99.90;;;;;;5111916;27;20704;-78
2021/01/27 10:42:38;;;;;;;17.60;9.40;;;5.20;99.90;;;;;;5114036;27;20384;-77
2021/01/27 10:45:31;;;;;;;17.97;10.10;;;5.30;99.90;;;;;;5118759;27;20597;-77
2021/01/27 10:48:02;;;;;;;21.13;9.77;;;5.20;99.90;;;;;;5123549;27;20216;-77
2021/01/27 10:50:29;;;;;;;17.27;10.07;;;5.40;99.90;;;;;;5122246;27;20240;-77
2021/01/27 10:52:57;;;;;;;17.97;9.63;;;5.40;99.90;;;;;;5126158;27;20196;-77
2021/01/27 10:55:34;;;;;;;18.93;9.50;;;5.40;99.90;;;;;;5117021;27;20273;-77
2021/01/27 10:58:09;;;;;;;16.10;9.53;;;5.40;99.90;;;;;;5123472;27;20248;-77
2021/01/27 11:00:36;;;;;;;15.97;9.33;;;5.40;99.90;;;;;;5112992;27;20223;-77
2021/01/27 11:03:03;;;;;;;16.47;9.37;;;5.40;99.90;;;;;;5121754;27;20195;-77
2021/01/27 11:05:30;;;;;;;17.20;9.67;;;5.50;99.90;;;;;;5123158;27;20202;-77
2021/01/27 11:07:58;;;;;;;16.10;9.73;;;5.60;99.90;;;;;;5125176;27;20286;-77
2021/01/27 11:10:24;;;;;;;18.83;10.60;;;5.70;99.90;;;;;;5113577;27;20219;-77
2021/01/27 11:12:51;;;;;;;16.27;9.93;;;5.70;99.90;;;;;;5125695;27;20285;-77
2021/01/27 11:15:18;;;;;;;17.47;9.37;;;5.80;99.90;;;;;;5122774;27;20674;-77
2021/01/27 11:17:44;;;;;;;16.77;9.47;;;5.90;99.90;;;;;;5128376;27;20724;-77
2021/01/27 11:20:12;;;;;;;17.33;9.33;;;5.90;99.90;;;;;;5126306;27;20198;-77
2021/01/27 11:22:38;;;;;;;16.60;9.43;;;6.00;99.90;;;;;;5124898;27;20203;-77
2021/01/27 11:25:07;;;;;;;16.17;9.30;;;6.10;99.90;;;;;;5125693;27;20712;-77
2021/01/27 11:27:33;;;;;;;15.33;9.13;;;6.00;99.90;;;;;;5132741;27;20252;-77
2021/01/27 11:30:00;;;;;;;18.07;9.77;;;6.00;99.90;;;;;;5130962;27;20310;-78
2021/01/27 11:32:26;;;;;;;14.20;8.63;;;6.00;99.90;;;;;;5126664;27;20251;-78
2021/01/27 11:34:52;;;;;;;14.47;8.73;;;6.00;99.90;;;;;;5123143;27;20234;-78
2021/01/27 11:37:19;;;;;;;16.93;8.80;;;6.00;99.90;;;;;;5127346;27;20200;-77
2021/01/27 11:39:46;;;;;;;15.13;8.73;;;6.00;99.90;;;;;;5119658;27;20211;-77
2021/01/27 11:42:13;;;;;;;12.80;8.53;;;5.90;99.90;;;;;;5130218;27;20213;-77
2021/01/27 11:44:40;;;;;;;14.90;8.73;;;6.00;99.90;;;;;;5128720;27;20222;-78
2021/01/27 11:47:06;;;;;;;14.67;8.93;;;6.00;99.90;;;;;;5119875;27;20465;-77
2021/01/27 11:49:32;;;;;;;15.63;9.73;;;6.10;99.90;;;;;;5128060;27;20249;-77
2021/01/27 11:52:00;;;;;;;14.47;9.23;;;6.20;99.90;;;;;;5122229;27;20211;-77
2021/01/27 11:54:27;;;;;;;16.77;9.43;;;6.10;99.90;;;;;;5125061;27;20205;-77
2021/01/27 11:56:53;;;;;;;15.20;8.67;;;6.10;99.90;;;;;;5121787;27;20748;-77
2021/01/27 11:59:20;;;;;;;17.60;9.20;;;6.10;99.90;;;;;;5125077;27;20298;-76
2021/01/27 12:01:46;;;;;;;14.33;8.83;;;6.10;99.90;;;;;;5126948;27;20218;-77
2021/01/27 12:04:13;;;;;;;17.63;9.10;;;6.10;99.90;;;;;;5123419;27;20227;-78
2021/01/27 12:06:41;;;;;;;17.23;9.20;;;6.20;99.90;;;;;;5124467;27;20189;-77
2021/01/27 12:09:08;;;;;;;16.10;9.43;;;6.20;99.90;;;;;;5119813;27;20288;-79
2021/01/27 12:11:34;;;;;;;15.30;9.10;;;6.10;99.90;;;;;;5115196;27;20243;-77
2021/01/27 12:14:00;;;;;;;18.60;9.90;;;6.00;99.90;;;;;;5121110;27;20278;-77
2021/01/27 12:16:28;;;;;;;18.40;9.50;;;6.00;99.90;;;;;;5119991;27;20198;-77
2021/01/27 12:18:54;;;;;;;16.60;9.27;;;6.10;99.90;;;;;;5122809;27;20659;-77
2021/01/27 12:21:20;;;;;;;19.30;10.13;;;6.20;99.90;;;;;;5125601;27;20294;-77
2021/01/27 12:23:47;;;;;;;17.77;9.40;;;6.20;99.90;;;;;;5125481;27;20616;-77
2021/01/27 12:26:13;;;;;;;16.53;9.37;;;6.30;99.90;;;;;;5123942;27;20751;-78
2021/01/27 12:28:39;;;;;;;21.47;10.07;;;6.30;99.90;;;;;;5125203;27;20277;-77
2021/01/27 12:31:06;;;;;;;21.37;10.53;;;6.50;99.90;;;;;;5119108;28;20642;-77
2021/01/27 12:33:33;;;;;;;21.13;10.43;;;6.60;99.90;;;;;;5118621;27;20313;-78
2021/01/27 12:35:59;;;;;;;20.57;10.97;;;6.70;99.90;;;;;;5116437;28;20670;-77
2021/01/27 12:38:26;;;;;;;19.70;11.67;;;6.70;99.90;;;;;;5112533;28;20210;-78
2021/01/27 12:40:52;;;;;;;22.87;12.43;;;7.00;99.90;;;;;;5118587;28;20427;-78
2021/01/27 12:43:18;;;;;;;17.23;10.33;;;7.10;99.90;;;;;;5123962;28;20194;-77
2021/01/27 12:45:47;;;;;;;22.47;11.73;;;7.10;99.90;;;;;;5112402;28;20206;-77
2021/01/27 12:48:13;;;;;;;25.07;11.53;;;7.10;99.90;;;;;;5110562;28;20204;-77
2021/01/27 12:50:41;;;;;;;22.23;11.80;;;7.00;99.90;;;;;;5115438;28;20363;-77
2021/01/27 12:53:07;;;;;;;20.43;11.97;;;7.00;99.90;;;;;;5122649;28;20275;-77
2021/01/27 12:55:34;;;;;;;26.67;12.73;;;7.00;99.90;;;;;;5101218;28;20302;-78
2021/01/27 12:58:01;;;;;;;30.27;13.00;;;7.00;99.90;;;;;;5115566;27;20727;-79
2021/01/27 13:00:29;;;;;;;27.60;12.93;;;7.10;99.90;;;;;;5117377;27;22480;-77
2021/01/27 13:02:56;;;;;;;23.17;13.00;;;7.00;99.90;;;;;;5119954;27;20192;-77
2021/01/27 13:05:24;;;;;;;31.20;14.33;;;6.90;99.90;;;;;;5123812;27;20223;-77
2021/01/27 13:07:52;;;;;;;31.63;13.87;;;7.00;99.90;;;;;;5128371;27;20187;-77
2021/01/27 13:10:19;;;;;;;32.17;14.30;;;7.10;99.90;;;;;;5121995;27;20215;-76
2021/01/27 13:12:46;;;;;;;37.03;14.17;;;7.10;99.90;;;;;;5122534;27;20207;-77
2021/01/27 13:15:15;;;;;;;30.30;13.40;;;7.20;99.90;;;;;;5114012;27;20202;-78
2021/01/27 13:17:42;;;;;;;29.20;14.30;;;7.40;99.90;;;;;;5112084;27;20199;-78
2021/01/27 13:20:11;;;;;;;34.70;15.93;;;7.40;99.90;;;;;;5122671;27;20622;-77
2021/01/27 13:22:37;;;;;;;31.00;14.83;;;7.50;99.90;;;;;;5130058;27;20206;-77